Terminal Aerodrome Forecast
Issued by NWS Charleston, WV

Home | Current Version | Previous Version | Text Only | Print | Product List | Glossary On
Versions: 1 2 3 4 5 6 7 8 9 10 11 12 13 14 15 16 17 18 19 20 21 22 23 24 25 26
000
FTUS41 KRLX 062331
TAFEKN
TAF
KEKN 062331Z 0700/0724 VRB03KT P6SM SHRA VCTS SCT045CB
     FM070100 VRB03KT P6SM VCSH BKN080
     FM070300 00000KT 6SM BR SCT140
     FM070600 00000KT 4SM BR SCT035
     FM070630 00000KT 1/2SM FG VV001
     FM071230 23002KT 1 1/2SM BR SCT002
     FM071300 24008KT P6SM SCT045=

USA.gov is the U.S. government's official web portal to all federal, state and local government web resources and services.